Impacts METAR Board
IDs:

KDHN - Dothan Rgnl, AL, US

Updated at: 1400 UTC 15 Oct 2018
Potential Impact None Slight Moderate High
Time 15/02Z 15/03Z 15/04Z 15/05Z 15/06Z 15/07Z 15/08Z 15/09Z 15/10Z 15/11Z 15/12Z 15/13Z 15/14Z
Temp74 72 68 69 68 69 67 67 67 68 68 70 75
Dewpt58 58 60 59 59 59 60 61 62 63 64 66 69
Altim30.11 30.11 30.12 30.11 30.10 30.10 30.10 30.11 30.12 30.12 30.13 30.14 30.15
VIS10 10 10 10 10 10 10 10 10 10 10 10 10
CIG-- -- -- -- -- -- -- -- -- 50 -- -- 65
CoverCLRCLRCLRCLRCLRCLRCLRCLRCLRBKNSCTSCTBKN
FltCatVFRVFRVFRVFRVFRVFRVFRVFRVFRVFRVFRVFRVFR
WX--------------------------
WDir9011090130100110120110110110120130140
WSpd6 5 3 4 5 6 5 3 4 5 5 5 4
WGst-- -- -- -- -- -- -- -- -- -- -- -- --
Raw hourly METARs
KDHN 150153Z AUTO 09006KT 10SM CLR 23/14 A3011 RMK AO2 SLP189 T02330144
KDHN 150253Z AUTO 11005KT 10SM CLR 22/14 A3011 RMK AO2 SLP191 T02220144 51013
KDHN 150353Z AUTO 09003KT 10SM CLR 20/16 A3012 RMK AO2 SLP194 T02000156
KDHN 150453Z AUTO 13004KT 10SM CLR 21/15 A3011 RMK AO2 SLP190 T02060150 403060150
KDHN 150553Z AUTO 10005KT 10SM CLR 20/15 A3010 RMK AO2 SLP189 T02000150 10250 20194 58002
KDHN 150653Z AUTO 11006KT 10SM CLR 21/15 A3010 RMK AO2 SLP189 T02060150
KDHN 150753Z AUTO 12005KT 10SM CLR 19/16 A3010 RMK AO2 SLP188 T01940156
KDHN 150853Z AUTO 11003KT 10SM CLR 19/16 A3011 RMK AO2 SLP190 T01940161 53001
KDHN 150953Z AUTO 11004KT 10SM CLR 19/17 A3012 RMK AO2 SLP193 T01940167
KDHN 151053Z 11005KT 10SM BKN050 BKN060 20/17 A3012 RMK AO2 SLP194 T02000172
KDHN 151153Z 12005KT 10SM SCT047 20/18 A3013 RMK AO2 SLP199 T02000178 10211 20189 53008
KDHN 151253Z 13005KT 10SM SCT007 SCT042 SCT060 21/19 A3014 RMK AO2 SLP201 T02110189
KDHN 151353Z 14004KT 10SM FEW008 BKN065 24/21 A3015 RMK AO2 SLP206 T02390206



Page loaded:  14:32 UTC  |   07:32 AM Pacific  |   08:32 AM Mountain  |   09:32 AM Central  |   10:32 AM Eastern

 

ADVISORIES

FORECASTS

FORECASTS

OBSERVATIONS

USER TOOLS

ABOUT US